createdAt,value
2022-12-01T00:00:07.474Z,11.98
2022-12-01T00:02:09.296Z,11.77
2022-12-01T00:04:11.098Z,11.73
2022-12-01T00:06:17.323Z,12.10
2022-12-01T00:08:19.280Z,11.85
2022-12-01T00:10:21.184Z,12.05
2022-12-01T00:12:23.037Z,12.18
2022-12-01T00:14:25.098Z,11.68
2022-12-01T00:16:26.920Z,12.10
2022-12-01T00:18:28.915Z,12.18
2022-12-01T00:20:30.708Z,11.98
2022-12-01T00:22:32.393Z,12.15
2022-12-01T00:24:34.047Z,11.68
2022-12-01T00:26:36.889Z,11.70
2022-12-01T00:28:38.845Z,11.50
2022-12-01T00:30:40.651Z,11.75
2022-12-01T00:32:42.367Z,11.75
2022-12-01T00:34:44.304Z,12.50
2022-12-01T00:36:46.007Z,12.30
2022-12-01T00:38:47.805Z,12.10
2022-12-01T00:40:49.593Z,12.27
2022-12-01T00:42:51.427Z,12.20
2022-12-01T00:44:53.392Z,11.57
2022-12-01T00:46:55.076Z,12.50
2022-12-01T00:48:56.931Z,12.35
2022-12-01T00:50:58.705Z,12.48
2022-12-01T00:53:00.513Z,12.18
2022-12-01T00:55:02.303Z,12.10
2022-12-01T00:57:04.633Z,12.57
2022-12-01T00:59:06.441Z,12.70
2022-12-01T01:01:08.229Z,13.05
2022-12-01T01:03:10.676Z,12.48
2022-12-01T01:05:12.448Z,13.73
2022-12-01T01:07:14.216Z,13.23
2022-12-01T01:09:16.248Z,12.90
2022-12-01T01:11:18.036Z,13.10
2022-12-01T01:13:19.717Z,12.95
2022-12-01T01:15:21.599Z,12.90
2022-12-01T01:17:23.325Z,13.18
2022-12-01T01:19:25.147Z,13.77
2022-12-01T01:21:27.051Z,13.68
2022-12-01T01:23:28.855Z,13.38
2022-12-01T01:25:32.162Z,13.30
2022-12-01T01:27:34.822Z,13.77
2022-12-01T01:29:37.088Z,13.93
2022-12-01T01:31:38.995Z,14.38
2022-12-01T01:33:40.692Z,14.52
2022-12-01T01:35:42.425Z,14.00
2022-12-01T01:37:44.186Z,14.40
2022-12-01T01:39:46.191Z,14.73
2022-12-01T01:41:48.089Z,14.38
2022-12-01T01:43:50.606Z,15.13
2022-12-01T01:45:52.337Z,15.30
2022-12-01T01:47:54.278Z,14.57
2022-12-01T01:49:56.778Z,14.48
2022-12-01T01:51:58.587Z,14.57
2022-12-01T01:54:04.280Z,14.35
2022-12-01T01:56:06.235Z,14.98
2022-12-01T01:58:09.022Z,15.30
2022-12-01T02:00:13.300Z,14.40
2022-12-01T02:02:15.181Z,14.73
2022-12-01T02:04:16.884Z,15.57
2022-12-01T02:06:18.621Z,14.77
2022-12-01T02:08:20.463Z,15.63
2022-12-01T02:10:22.674Z,15.00
2022-12-01T02:12:47.154Z,15.30
2022-12-01T02:14:57.477Z,15.30
2022-12-01T02:17:04.596Z,15.23
2022-12-01T02:19:29.372Z,15.70
2022-12-01T02:22:21.674Z,15.25
2022-12-01T02:24:26.173Z,14.45
2022-12-01T02:26:52.110Z,15.02
2022-12-01T02:29:19.910Z,14.93
2022-12-01T02:31:47.656Z,14.80
2022-12-01T02:33:57.891Z,15.43
2022-12-01T02:36:33.445Z,14.48
2022-12-01T02:38:38.968Z,15.20
2022-12-01T02:41:05.085Z,14.35
2022-12-01T02:43:44.290Z,14.80
2022-12-01T02:46:15.346Z,15.23
2022-12-01T02:48:34.064Z,14.60
2022-12-01T02:50:35.869Z,14.90
2022-12-01T02:52:38.689Z,15.10
2022-12-01T02:54:40.421Z,14.60
2022-12-01T02:56:44.382Z,14.90
2022-12-01T02:58:46.151Z,14.50
2022-12-01T03:01:08.003Z,15.90
2022-12-01T03:03:21.459Z,14.95
2022-12-01T03:06:17.045Z,15.70
2022-12-01T03:08:52.771Z,14.95
2022-12-01T03:13:23.385Z,14.10
2022-12-01T03:15:34.040Z,14.73
2022-12-01T03:17:41.464Z,14.90
2022-12-01T03:19:53.911Z,15.95
2022-12-01T03:22:01.985Z,14.95
2022-12-01T03:24:22.709Z,15.32
2022-12-01T03:26:24.757Z,15.20
2022-12-01T03:28:30.718Z,15.20
2022-12-01T03:30:33.878Z,15.25
2022-12-01T03:32:39.035Z,15.05
2022-12-01T03:35:02.068Z,14.32
2022-12-01T03:37:16.560Z,16.20
2022-12-01T03:39:25.869Z,15.90
2022-12-01T03:41:30.253Z,15.45
2022-12-01T03:45:35.513Z,14.95
2022-12-01T03:47:37.278Z,14.88
2022-12-01T03:49:39.253Z,14.52
2022-12-01T03:51:46.074Z,15.63
2022-12-01T03:53:55.725Z,15.25
2022-12-01T03:56:00.994Z,16.33
2022-12-01T03:58:13.811Z,15.95
2022-12-01T04:00:15.774Z,15.25
2022-12-01T04:02:17.725Z,15.55
2022-12-01T04:04:19.661Z,15.38
2022-12-01T04:06:21.362Z,17.30
2022-12-01T04:08:23.131Z,16.55
2022-12-01T04:10:24.844Z,17.10
2022-12-01T04:12:26.626Z,16.90
2022-12-01T04:14:28.798Z,16.83
2022-12-01T04:16:30.766Z,16.10
2022-12-01T04:18:33.548Z,17.55
2022-12-01T04:20:35.318Z,17.02
2022-12-01T04:22:38.080Z,17.13
2022-12-01T04:24:39.885Z,17.17
2022-12-01T04:26:42.672Z,16.33
2022-12-01T04:28:44.618Z,16.85
2022-12-01T04:30:46.343Z,16.80
2022-12-01T04:32:48.144Z,16.88
2022-12-01T04:34:49.935Z,17.30
2022-12-01T04:36:51.895Z,17.75
2022-12-01T04:38:53.805Z,17.48
2022-12-01T04:40:55.642Z,17.50
2022-12-01T04:42:57.509Z,17.35
2022-12-01T04:44:59.241Z,17.17
2022-12-01T04:47:01.226Z,17.25
2022-12-01T04:49:03.445Z,17.48
2022-12-01T04:51:06.023Z,18.38
2022-12-01T04:53:07.675Z,16.38
2022-12-01T04:55:09.861Z,17.15
2022-12-01T04:57:11.494Z,18.08
2022-12-01T04:59:13.148Z,16.65
2022-12-01T05:01:15.775Z,17.33
2022-12-01T05:03:17.513Z,16.90
2022-12-01T05:05:19.139Z,17.48
2022-12-01T05:07:20.806Z,18.05
2022-12-01T05:09:22.487Z,17.38
2022-12-01T05:11:26.418Z,17.08
2022-12-01T05:13:28.059Z,17.48
2022-12-01T05:15:29.675Z,17.33
2022-12-01T05:17:36.811Z,17.83
2022-12-01T05:19:38.790Z,18.70
2022-12-01T05:21:40.962Z,18.15
2022-12-01T05:23:42.592Z,18.63
2022-12-01T05:25:44.224Z,18.08
2022-12-01T05:27:45.853Z,18.60
2022-12-01T05:29:47.884Z,17.63
2022-12-01T05:31:49.813Z,18.58
2022-12-01T05:33:51.459Z,17.75
2022-12-01T05:35:53.161Z,17.60
2022-12-01T05:37:54.800Z,17.45
2022-12-01T05:39:56.439Z,18.27
2022-12-01T05:41:58.071Z,17.45
2022-12-01T05:43:59.704Z,17.73
2022-12-01T05:46:01.425Z,17.75
2022-12-01T05:48:03.187Z,17.23
2022-12-01T05:50:06.117Z,17.63
2022-12-01T05:52:08.136Z,18.10
2022-12-01T05:54:09.857Z,18.17
2022-12-01T05:56:11.477Z,18.13
2022-12-01T05:58:13.141Z,18.17
2022-12-01T06:00:15.180Z,19.00
2022-12-01T06:02:16.834Z,17.98
2022-12-01T06:04:18.555Z,18.77
2022-12-01T06:06:20.405Z,17.85
2022-12-01T06:08:22.036Z,19.23
2022-12-01T06:10:23.683Z,18.30
2022-12-01T06:12:25.301Z,18.35
2022-12-01T06:14:26.930Z,18.48
2022-12-01T06:16:28.653Z,18.48
2022-12-01T06:18:31.890Z,18.48
2022-12-01T06:20:33.538Z,18.63
2022-12-01T06:22:35.164Z,18.45
2022-12-01T06:24:36.899Z,18.45
2022-12-01T06:26:38.538Z,18.98
2022-12-01T06:28:40.182Z,18.50
2022-12-01T06:30:41.856Z,18.45
2022-12-01T06:32:43.482Z,18.25
2022-12-01T06:34:45.117Z,18.70
2022-12-01T06:36:46.745Z,19.63
2022-12-01T06:38:48.365Z,18.67
2022-12-01T06:40:49.976Z,18.92
2022-12-01T06:42:51.614Z,18.77
2022-12-01T06:44:53.259Z,18.50
2022-12-01T06:46:54.929Z,18.30
2022-12-01T06:48:56.678Z,18.45
2022-12-01T06:50:59.087Z,19.40
2022-12-01T06:53:00.764Z,20.10
2022-12-01T06:55:02.893Z,18.25
2022-12-01T06:57:04.833Z,18.25
2022-12-01T06:59:06.788Z,19.90
2022-12-01T07:01:10.105Z,19.55
2022-12-01T07:03:11.785Z,19.30
2022-12-01T07:05:13.420Z,19.92
2022-12-01T07:07:15.061Z,18.85
2022-12-01T07:09:16.686Z,19.77
2022-12-01T07:11:18.457Z,20.33
2022-12-01T07:13:20.088Z,18.73
2022-12-01T07:15:21.715Z,19.08
2022-12-01T07:17:23.502Z,20.83
2022-12-01T07:19:25.141Z,21.45
2022-12-01T07:21:26.778Z,21.10
2022-12-01T07:23:28.593Z,21.55
2022-12-01T07:25:30.230Z,21.20
2022-12-01T07:27:31.977Z,21.17
2022-12-01T07:29:33.687Z,22.23
2022-12-01T07:31:35.434Z,22.10
2022-12-01T07:33:37.107Z,22.35
2022-12-01T07:35:38.763Z,21.90
2022-12-01T07:37:40.409Z,22.38
2022-12-01T07:39:42.086Z,21.98
2022-12-01T07:41:43.726Z,22.35
2022-12-01T07:43:45.385Z,22.05
2022-12-01T07:45:47.075Z,21.02
2022-12-01T07:47:52.195Z,22.15
2022-12-01T07:49:53.818Z,20.33
2022-12-01T07:51:55.458Z,21.05
2022-12-01T07:54:01.164Z,20.10
2022-12-01T07:56:07.015Z,21.13
2022-12-01T07:58:09.940Z,21.40
2022-12-01T08:00:12.272Z,21.27
2022-12-01T08:02:14.029Z,22.35
2022-12-01T08:04:15.763Z,24.23
2022-12-01T08:06:17.760Z,24.40
2022-12-01T08:08:19.463Z,25.75
2022-12-01T08:10:21.203Z,26.08
2022-12-01T08:12:22.886Z,25.33
2022-12-01T08:14:24.655Z,26.85
2022-12-01T08:16:26.371Z,26.42
2022-12-01T08:18:28.132Z,26.40
2022-12-01T08:20:29.821Z,27.27
2022-12-01T08:22:31.537Z,26.98
2022-12-01T08:24:33.231Z,26.58
2022-12-01T08:26:34.848Z,27.23
2022-12-01T08:28:36.495Z,28.25
2022-12-01T08:30:38.134Z,26.83
2022-12-01T08:32:39.769Z,26.80
2022-12-01T08:34:41.849Z,26.85
2022-12-01T08:36:43.901Z,27.10
2022-12-01T08:38:46.122Z,27.27
2022-12-01T08:40:47.564Z,27.27
2022-12-01T08:42:49.179Z,26.48
2022-12-01T08:44:50.854Z,27.33
2022-12-01T08:46:52.568Z,27.13
2022-12-01T08:48:54.765Z,27.20
2022-12-01T08:51:09.401Z,26.98
2022-12-01T08:53:11.025Z,27.02
2022-12-01T08:55:12.661Z,26.92
2022-12-01T08:57:14.288Z,26.30
2022-12-01T08:59:16.015Z,25.80
2022-12-01T09:01:18.208Z,25.98
2022-12-01T09:03:19.923Z,26.52
2022-12-01T09:05:21.581Z,26.20
2022-12-01T09:07:26.540Z,26.50
2022-12-01T09:09:28.857Z,27.05
2022-12-01T09:11:30.491Z,26.63
2022-12-01T09:13:33.224Z,27.85
2022-12-01T09:15:34.872Z,26.77
2022-12-01T09:17:36.510Z,26.13
2022-12-01T09:19:38.127Z,27.17
2022-12-01T09:21:39.855Z,28.30
2022-12-01T09:23:41.476Z,26.88
2022-12-01T09:25:43.232Z,27.70
2022-12-01T09:27:45.031Z,26.92
2022-12-01T09:29:47.063Z,26.90
2022-12-01T09:31:48.917Z,26.27
2022-12-01T09:33:57.797Z,28.13
2022-12-01T09:36:00.303Z,27.15
2022-12-01T09:38:01.996Z,27.20
2022-12-01T09:40:03.950Z,27.98
2022-12-01T09:42:13.836Z,26.13
2022-12-01T09:44:27.549Z,27.90
2022-12-01T09:46:32.885Z,27.05
2022-12-01T09:48:43.673Z,27.52
2022-12-01T09:50:45.350Z,27.48
2022-12-01T09:52:48.190Z,26.58
2022-12-01T09:54:49.936Z,25.23
2022-12-01T09:56:52.644Z,26.02
2022-12-01T09:58:59.470Z,25.25
2022-12-01T10:01:01.276Z,25.13
2022-12-01T10:03:08.915Z,24.13
2022-12-01T10:05:22.481Z,25.10
2022-12-01T10:07:24.844Z,24.40
2022-12-01T10:09:41.499Z,24.20
2022-12-01T10:11:43.953Z,23.95
2022-12-01T10:13:45.654Z,24.10
2022-12-01T10:15:59.428Z,24.40
2022-12-01T10:18:24.308Z,24.38
2022-12-01T10:20:30.895Z,23.02
2022-12-01T10:22:55.804Z,22.92
2022-12-01T10:25:10.683Z,20.88
2022-12-01T10:29:47.791Z,18.23
2022-12-01T10:31:53.875Z,19.58
2022-12-01T10:34:08.195Z,17.15
2022-12-01T10:36:10.192Z,16.48
2022-12-01T10:38:15.296Z,14.88
2022-12-01T10:40:17.444Z,14.73
2022-12-01T10:42:41.290Z,13.88
2022-12-01T10:44:43.021Z,13.85
2022-12-01T10:46:50.596Z,13.32
2022-12-01T10:49:08.190Z,12.60
2022-12-01T10:51:28.831Z,12.63
2022-12-01T10:53:49.080Z,12.70
2022-12-01T10:55:52.064Z,12.30
2022-12-01T10:58:06.145Z,11.98
2022-12-01T11:00:57.543Z,11.05
2022-12-01T11:22:31.315Z,54.50
2022-12-01T11:24:42.384Z,55.92
2022-12-01T11:26:44.175Z,54.80
2022-12-01T11:29:02.880Z,55.08
2022-12-01T11:31:13.653Z,54.53
2022-12-01T11:33:15.391Z,54.40
2022-12-01T11:35:19.495Z,56.40
2022-12-01T11:37:22.515Z,40.22
2022-12-01T11:39:36.501Z,53.60
2022-12-01T11:41:40.191Z,52.92
2022-12-01T11:43:46.768Z,52.60
2022-12-01T11:45:52.503Z,52.90
2022-12-01T11:48:03.377Z,53.75
2022-12-01T11:50:24.178Z,52.50
2022-12-01T11:52:36.916Z,56.50
2022-12-01T11:54:38.868Z,55.47
2022-12-01T11:56:40.705Z,56.30
2022-12-01T11:58:46.259Z,56.75
2022-12-01T12:00:52.091Z,58.42
2022-12-01T12:02:56.767Z,57.47
2022-12-01T12:05:30.959Z,58.58
2022-12-01T12:08:04.383Z,59.17
2022-12-01T12:10:43.458Z,56.85
2022-12-01T12:13:03.344Z,57.83
2022-12-01T12:15:16.863Z,58.47
2022-12-01T12:17:41.264Z,60.40
2022-12-01T12:20:16.236Z,56.25
2022-12-01T12:22:33.858Z,58.67
2022-12-01T12:25:20.474Z,55.13
2022-12-01T12:29:51.642Z,52.70
2022-12-01T12:32:03.443Z,52.38
2022-12-01T12:34:13.991Z,53.38
2022-12-01T12:36:27.687Z,51.58
2022-12-01T12:39:01.690Z,51.40
2022-12-01T12:41:25.106Z,51.45
2022-12-01T12:43:51.586Z,48.40
2022-12-01T12:45:56.306Z,50.83
2022-12-01T12:48:07.450Z,51.80
2022-12-01T12:50:15.268Z,49.38
2022-12-01T12:52:26.690Z,48.55
2022-12-01T12:54:41.891Z,48.00
2022-12-01T12:58:58.508Z,44.87
2022-12-01T13:05:09.389Z,47.50
2022-12-01T13:10:48.895Z,46.88
2022-12-01T13:15:51.517Z,44.72
2022-12-01T13:20:54.454Z,49.17
2022-12-01T13:25:57.559Z,53.78
2022-12-01T13:31:15.400Z,54.92
2022-12-01T13:36:46.780Z,49.83
2022-12-01T13:41:39.099Z,46.63
2022-12-01T13:46:44.107Z,38.33
2022-12-01T13:52:22.860Z,47.08
2022-12-01T13:57:26.957Z,50.13
2022-12-01T14:02:30.559Z,51.72
2022-12-01T14:07:34.911Z,49.72
2022-12-01T14:12:36.828Z,50.92
2022-12-01T14:17:38.700Z,38.33
2022-12-01T14:22:42.395Z,53.03
2022-12-01T14:27:44.439Z,52.08
2022-12-01T14:32:46.325Z,50.67
2022-12-01T14:37:48.838Z,38.97
2022-12-01T14:47:57.802Z,49.85
2022-12-01T14:53:07.294Z,43.20
2022-12-01T14:58:15.354Z,47.95
2022-12-01T15:03:19.664Z,50.00
2022-12-01T15:08:42.020Z,46.78
2022-12-01T15:13:48.777Z,50.00
2022-12-01T15:18:50.580Z,49.10
2022-12-01T15:24:03.394Z,44.40
2022-12-01T15:29:18.414Z,52.85
2022-12-01T15:34:27.139Z,52.60
2022-12-01T15:39:39.516Z,56.90
2022-12-01T15:44:41.385Z,55.20
2022-12-01T15:49:48.719Z,40.17
2022-12-01T15:54:50.841Z,52.72
2022-12-01T15:59:54.258Z,50.47
2022-12-01T16:05:10.085Z,50.10
2022-12-01T16:10:41.181Z,45.95
2022-12-01T16:15:43.537Z,47.42
2022-12-01T16:20:45.536Z,47.17
2022-12-01T16:25:47.479Z,48.38
2022-12-01T16:30:49.593Z,45.58
2022-12-01T16:35:51.638Z,48.83
2022-12-01T16:40:55.353Z,49.75
2022-12-01T16:46:02.058Z,49.15
2022-12-01T16:51:05.272Z,47.50
2022-12-01T16:56:09.419Z,45.75
2022-12-01T17:01:12.646Z,43.60
2022-12-01T17:06:17.048Z,40.80
2022-12-01T17:11:18.968Z,41.88
2022-12-01T17:16:20.987Z,33.83
2022-12-01T17:21:22.907Z,39.45
2022-12-01T17:26:24.841Z,40.30
2022-12-01T17:31:26.763Z,41.20
2022-12-01T17:36:28.751Z,31.85
2022-12-01T17:41:30.629Z,39.90
2022-12-01T17:46:32.444Z,32.80
2022-12-01T17:51:34.488Z,37.37
2022-12-01T17:56:36.597Z,30.45
2022-12-01T18:01:38.868Z,37.75
2022-12-01T18:06:42.067Z,38.08
2022-12-01T18:11:44.034Z,39.38
2022-12-01T18:16:46.038Z,41.00
2022-12-01T18:21:49.062Z,36.90
2022-12-01T18:26:50.955Z,41.35
2022-12-01T18:31:56.535Z,36.83
2022-12-01T18:36:58.661Z,38.53
2022-12-01T18:42:00.841Z,39.33
2022-12-01T18:47:02.975Z,35.95
2022-12-01T18:52:05.098Z,35.88
2022-12-01T18:57:07.216Z,33.10
2022-12-01T19:02:09.899Z,34.72
2022-12-01T19:07:12.072Z,37.20
2022-12-01T19:12:14.395Z,37.28
2022-12-01T19:22:18.141Z,38.22
2022-12-01T19:27:20.012Z,41.35
2022-12-01T19:32:21.982Z,40.08
2022-12-01T19:37:23.898Z,34.67
2022-12-01T19:42:25.794Z,34.45
2022-12-01T19:47:33.713Z,28.00
2022-12-01T19:52:36.396Z,32.85
2022-12-01T19:57:38.304Z,32.17
2022-12-01T20:02:40.342Z,33.45
2022-12-01T20:07:44.733Z,29.23
2022-12-01T20:12:50.358Z,33.55
2022-12-01T20:17:52.415Z,30.15
2022-12-01T20:22:54.317Z,20.67
2022-12-01T20:27:56.432Z,23.55
2022-12-01T20:32:58.287Z,28.95
2022-12-01T20:38:00.258Z,29.98
2022-12-01T20:43:02.175Z,30.83
2022-12-01T20:48:04.299Z,30.42
2022-12-01T20:53:06.246Z,33.20
2022-12-01T20:58:08.101Z,32.20
2022-12-01T21:03:10.480Z,25.80
2022-12-01T21:13:22.871Z,29.30
2022-12-01T21:18:25.966Z,33.28
2022-12-01T21:23:27.997Z,30.90
2022-12-01T21:28:30.367Z,28.05
2022-12-01T21:33:33.836Z,33.80
2022-12-01T21:38:35.721Z,27.90
2022-12-01T21:43:38.629Z,20.73
2022-12-01T21:48:40.675Z,25.38
2022-12-01T21:53:42.570Z,27.92
2022-12-01T21:58:44.637Z,24.95
2022-12-01T22:03:46.796Z,27.67
2022-12-01T22:08:53.997Z,27.52
2022-12-01T22:14:09.754Z,27.10
2022-12-01T22:19:32.629Z,23.60
2022-12-01T22:24:39.898Z,31.52
2022-12-01T22:29:46.091Z,33.00
2022-12-01T22:34:56.505Z,32.47
2022-12-01T22:39:58.466Z,30.08
2022-12-01T22:45:24.429Z,27.02
2022-12-01T22:50:32.827Z,24.35
2022-12-01T22:55:34.787Z,26.02
2022-12-01T23:00:36.873Z,27.15
2022-12-01T23:05:38.822Z,22.83
2022-12-01T23:10:40.642Z,24.00
2022-12-01T23:15:46.417Z,20.35
2022-12-01T23:20:50.620Z,22.60
2022-12-01T23:25:52.510Z,22.15
2022-12-01T23:30:55.804Z,25.50
2022-12-01T23:36:28.121Z,27.58
2022-12-01T23:41:40.307Z,26.95
2022-12-01T23:46:42.644Z,28.25
2022-12-01T23:56:52.425Z,26.85
